San Juan, PR (00906)

11:16 AM AST en Agosto 16, 2017 (GMT -0400)
Ocean Park | | Change Station

Alt 15 ft 18.45 °N, 66.05 °W | Updated 2 minutes ago

Parcialmente nublado
Parcialmente nublado
84.9 ° F
Sensación térmica 98 ° F
N
19.0
Viento Variable Viento desde NE
Gusts 23.0 mph

Hoy
Alta -- | Baja -- ° F
--% Posibilidad de precipitaciones
Ayer
Alta -- | Baja -- ° F
Precip. -- pul
Presión 30.00 pul
Visibilidad 7.0 Millas
Nubes Nubes dispersas 2200 ft
Nubes dispersas 3300 ft
Índice de calor 98 ° F
Punto de rocío 79 ° F
Humedad 83%
Precipitaciones 0.02 pul
Espesor de la nieve No disponible.
6:06 AM 6:50 PM
Creciente menguante, 32% visible
METAR TJSJ 161456Z 06015G22KT 7SM SCT022 SCT033 31/25 A3000 RMK AO2 SLP158 HZ ALQDS VCSH NE T03110250 58001
Presión 30.00 pul
Visibilidad 7.0 Millas
Nubes Nubes dispersas 2200 ft
Nubes dispersas 3300 ft
Índice de calor 98 ° F
Punto de rocío 79 ° F
Humedad 83%
Precipitaciones 0.02 pul
Espesor de la nieve No disponible.
6:06 AM 6:50 PM
Creciente menguante, 32% visible
METAR TJSJ 161456Z 06015G22KT 7SM SCT022 SCT033 31/25 A3000 RMK AO2 SLP158 HZ ALQDS VCSH NE T03110250 58001

Get Severe Weather Alerts

Thanks for signing up!

Be on the lookout for a verification email in your inbox.

You'll start receiving the daily forecast at 6 AM.

×

10-Day Weather Forecast

Almanac

Astronomía

Aug. 16, 2017 Salida Puesta
Hora real
Crepúsculo civil
Crepúsculo náutico
Crepúsculo astronómico
Luna
Horas de luz
Horas de luz
Tomorrow will be .
, % of the Moon is Illuminated

Extremos de hoy

Máximos del estado Bajos del estado

Community

WunderPhotos

Category 6

Welcome to Category 6. This is the collective home for Weather Underground's featured writeups by Dr. Jeff Masters (right), Bob Henson (left), Chris Burt, and other regular contributors.

Nearby

Calidad del aire

  Calidad del aire Índice AQ Contaminante
Not available.

Grosos de nieve

Estación Profundido Altura

Actividad de terremotos

Ciudad Distance Mag. Tiempo y dato
Magnitud mínima muestra es 2,5.

Temperaturas de aguas costeras

Lugar Temperatura

Stations

Estaciones meteorológicas cercanas

Ubicación de la estación Temp. Vientos helados Punto de rocío Humedad Viento Precip. Alt Actualizado Tipo
                   

Watches & Warnings

There are currently no watches in effect.